Time;durP1;ratioP1;P1;durP2;ratioP2;P2;SDS_P1;SDS_P2;PMS_P1;PMS_P2;Temp;Humidity;BMP_temperature;BMP_pressure;BME280_temperature;BME280_humidity;BME280_pressure;Samples;Min_cycle;Max_cycle;Signal;HPM_P1;HPM_P2
2023/07/26 00:02:18;;;;;;;0.43;0.30;;;14.40;99.90;;;;;;5019104;28;20211;-52
2023/07/26 00:04:45;;;;;;;0.20;0.20;;;14.40;99.90;;;;;;5013067;28;20203;-52
2023/07/26 00:07:12;;;;;;;0.30;0.30;;;14.50;99.90;;;;;;5012054;28;20729;-52
2023/07/26 00:09:39;;;;;;;1.10;0.30;;;14.50;99.90;;;;;;5007705;28;20203;-51
2023/07/26 00:12:07;;;;;;;0.20;0.20;;;14.40;99.90;;;;;;5014210;28;20203;-53
2023/07/26 00:14:34;;;;;;;0.20;0.20;;;14.40;99.90;;;;;;5010529;28;20211;-52
2023/07/26 00:17:01;;;;;;;0.30;0.30;;;14.40;99.90;;;;;;5011783;28;20278;-52
2023/07/26 00:19:29;;;;;;;1.17;0.30;;;14.40;99.90;;;;;;5010949;28;20207;-51
2023/07/26 00:21:56;;;;;;;0.20;0.20;;;14.40;99.90;;;;;;5020788;28;20203;-53
2023/07/26 00:24:23;;;;;;;0.60;0.33;;;14.50;99.90;;;;;;5018031;28;20202;-52
2023/07/26 00:26:50;;;;;;;0.20;0.20;;;14.50;99.90;;;;;;5019482;28;20290;-51
2023/07/26 00:29:17;;;;;;;0.23;0.23;;;14.50;99.90;;;;;;5009092;28;20614;-51
2023/07/26 00:31:44;;;;;;;1.03;0.23;;;14.50;99.90;;;;;;5008959;28;20251;-53
2023/07/26 00:34:11;;;;;;;2.00;0.30;;;14.50;99.90;;;;;;5020975;28;20215;-51
2023/07/26 00:36:39;;;;;;;0.20;0.20;;;14.50;99.90;;;;;;5013014;28;20661;-52
2023/07/26 00:39:06;;;;;;;0.37;0.20;;;14.40;99.90;;;;;;5007541;28;20591;-52
2023/07/26 00:41:33;;;;;;;0.40;0.30;;;14.40;99.90;;;;;;5010611;28;20609;-52
2023/07/26 00:44:00;;;;;;;0.20;0.20;;;14.40;99.90;;;;;;5012347;28;20199;-51
2023/07/26 00:46:27;;;;;;;0.17;0.17;;;14.30;99.90;;;;;;5021835;28;20210;-52
2023/07/26 00:48:55;;;;;;;0.57;0.20;;;14.30;99.90;;;;;;5017048;28;20202;-52
2023/07/26 00:51:23;;;;;;;1.23;0.20;;;14.30;99.90;;;;;;5020881;28;20199;-52
2023/07/26 00:53:51;;;;;;;0.20;0.20;;;14.30;99.90;;;;;;5011652;28;20203;-51
2023/07/26 00:56:18;;;;;;;0.20;0.20;;;14.20;99.90;;;;;;5012797;28;20233;-52
2023/07/26 00:58:47;;;;;;;0.10;0.10;;;14.30;99.90;;;;;;5014822;28;20219;-53
2023/07/26 01:01:14;;;;;;;0.37;0.10;;;14.20;99.90;;;;;;5017645;28;20206;-51
2023/07/26 01:03:41;;;;;;;0.50;0.10;;;14.10;99.90;;;;;;5011567;28;20253;-51
2023/07/26 01:06:21;;;;;;;0.30;0.20;;;14.10;99.90;;;;;;5011313;28;20269;-52
2023/07/26 01:09:00;;;;;;;0.50;0.50;;;14.10;99.90;;;;;;5018189;28;20195;-52
2023/07/26 01:11:33;;;;;;;0.40;0.20;;;14.10;99.90;;;;;;5010875;28;20290;-52
2023/07/26 01:14:10;;;;;;;0.20;0.20;;;14.10;99.90;;;;;;5002409;28;20266;-51
2023/07/26 01:16:39;;;;;;;0.20;0.10;;;14.00;99.90;;;;;;5009873;28;20220;-51
2023/07/26 01:19:05;;;;;;;0.13;0.13;;;14.00;99.90;;;;;;5011475;28;20277;-52
2023/07/26 01:21:34;;;;;;;0.37;0.20;;;14.00;99.90;;;;;;5010717;28;20207;-52
2023/07/26 01:24:01;;;;;;;2.63;0.30;;;14.00;99.90;;;;;;5017749;28;20206;-52
2023/07/26 01:26:28;;;;;;;0.50;0.40;;;14.00;99.90;;;;;;5017697;28;20623;-52
2023/07/26 01:28:55;;;;;;;1.23;0.30;;;14.00;99.90;;;;;;5020512;28;20672;-52
2023/07/26 01:31:24;;;;;;;0.53;0.30;;;14.10;99.90;;;;;;5023755;28;20774;-52
2023/07/26 01:33:52;;;;;;;1.20;0.30;;;14.00;99.90;;;;;;5022371;28;20199;-52
2023/07/26 01:36:22;;;;;;;1.00;0.30;;;14.10;99.90;;;;;;5000530;28;20200;-52
2023/07/26 01:38:51;;;;;;;0.50;0.30;;;14.00;99.90;;;;;;5002581;28;20302;-52
2023/07/26 01:41:19;;;;;;;0.27;0.27;;;14.00;99.90;;;;;;5013739;28;20672;-52
2023/07/26 01:43:46;;;;;;;0.47;0.20;;;14.00;99.90;;;;;;5014103;28;20207;-52
2023/07/26 01:46:13;;;;;;;1.20;0.30;;;14.00;99.90;;;;;;5019874;28;20213;-51
2023/07/26 01:48:40;;;;;;;0.30;0.30;;;13.90;99.90;;;;;;5021811;28;20222;-52
2023/07/26 01:51:08;;;;;;;0.20;0.20;;;14.00;99.90;;;;;;5005093;28;20243;-53
2023/07/26 01:53:35;;;;;;;0.20;0.20;;;13.90;99.90;;;;;;5023200;28;20210;-52
2023/07/26 01:56:03;;;;;;;0.33;0.33;;;13.90;99.90;;;;;;5031758;28;20206;-52
2023/07/26 01:58:30;;;;;;;0.20;0.20;;;13.90;99.90;;;;;;5024475;28;20222;-51
2023/07/26 02:00:57;;;;;;;0.47;0.20;;;13.90;99.90;;;;;;5014116;28;20654;-52
2023/07/26 02:03:24;;;;;;;0.20;0.20;;;13.90;99.90;;;;;;5011881;28;20236;-52
2023/07/26 02:05:51;;;;;;;3.13;0.30;;;13.80;99.90;;;;;;5019196;28;20210;-52
2023/07/26 02:08:18;;;;;;;0.20;0.20;;;13.80;99.90;;;;;;5011747;28;20218;-52
2023/07/26 02:10:45;;;;;;;1.70;0.23;;;13.70;99.90;;;;;;5019380;28;20575;-52
2023/07/26 02:13:14;;;;;;;0.87;0.30;;;13.70;99.90;;;;;;5011534;28;20357;-52
2023/07/26 02:15:41;;;;;;;0.30;0.30;;;13.70;99.90;;;;;;5012033;28;20249;-51
2023/07/26 02:18:08;;;;;;;0.23;0.20;;;13.70;99.90;;;;;;5011853;28;20222;-52
2023/07/26 02:20:35;;;;;;;0.20;0.20;;;13.70;99.90;;;;;;5019295;28;20260;-52
2023/07/26 02:23:02;;;;;;;0.70;0.50;;;13.70;99.90;;;;;;5019070;28;20203;-52
2023/07/26 02:25:29;;;;;;;0.20;0.20;;;13.60;99.90;;;;;;5011865;28;20203;-51
2023/07/26 02:27:56;;;;;;;1.10;0.20;;;13.60;99.90;;;;;;5011409;28;20231;-52
2023/07/26 02:30:24;;;;;;;1.40;0.20;;;13.60;99.90;;;;;;5011892;28;20210;-52
2023/07/26 02:32:51;;;;;;;0.27;0.20;;;13.60;99.90;;;;;;5016253;28;20770;-51
2023/07/26 02:35:18;;;;;;;0.27;0.10;;;13.60;99.90;;;;;;5011600;28;20199;-51
2023/07/26 02:37:48;;;;;;;0.10;0.10;;;13.50;99.90;;;;;;5011613;28;20600;-51
2023/07/26 02:40:15;;;;;;;0.70;0.10;;;13.50;99.90;;;;;;5011694;28;20203;-52
2023/07/26 02:42:42;;;;;;;0.30;0.20;;;13.50;99.90;;;;;;5013942;28;20744;-51
2023/07/26 02:45:10;;;;;;;1.23;0.20;;;13.50;99.90;;;;;;5022909;28;20203;-51
2023/07/26 02:47:38;;;;;;;0.50;0.10;;;13.50;99.90;;;;;;5014642;28;20226;-51
2023/07/26 02:50:06;;;;;;;0.93;0.20;;;13.50;99.90;;;;;;5025334;28;20198;-51
2023/07/26 02:52:33;;;;;;;1.13;0.10;;;13.50;99.90;;;;;;5034766;28;20203;-52
2023/07/26 02:55:00;;;;;;;0.47;0.10;;;13.50;99.90;;;;;;5034880;28;20686;-52
2023/07/26 02:57:27;;;;;;;0.67;0.10;;;13.40;99.90;;;;;;5025031;28;20229;-53
2023/07/26 02:59:54;;;;;;;0.07;0.07;;;13.40;99.90;;;;;;5024394;28;20217;-52
2023/07/26 03:02:20;;;;;;;0.10;0.10;;;13.40;99.90;;;;;;5019374;28;20202;-52
2023/07/26 03:04:49;;;;;;;1.90;0.37;;;13.40;99.90;;;;;;5026449;28;20258;-52
2023/07/26 03:07:16;;;;;;;0.20;0.20;;;13.40;99.90;;;;;;5034645;28;20295;-52
2023/07/26 03:09:43;;;;;;;0.10;0.10;;;13.40;99.90;;;;;;5024987;28;20662;-53
2023/07/26 03:12:10;;;;;;;0.23;0.23;;;13.40;99.90;;;;;;5014656;28;20203;-52
2023/07/26 03:14:40;;;;;;;0.10;0.10;;;13.40;99.90;;;;;;5014902;28;20203;-52
2023/07/26 03:17:08;;;;;;;0.47;0.47;;;13.30;99.90;;;;;;5022252;28;20251;-51
2023/07/26 03:19:35;;;;;;;0.00;0.00;;;13.30;99.90;;;;;;5014612;28;20223;-52
2023/07/26 03:22:04;;;;;;;0.10;0.10;;;13.30;99.90;;;;;;5019344;28;20203;-52
2023/07/26 03:24:31;;;;;;;0.47;0.40;;;13.30;99.90;;;;;;5028374;28;20198;-51
2023/07/26 03:26:58;;;;;;;0.20;0.20;;;13.20;99.90;;;;;;5025592;28;20219;-52
2023/07/26 03:29:24;;;;;;;0.30;0.20;;;13.20;99.90;;;;;;5030583;28;20191;-52
2023/07/26 03:31:51;;;;;;;0.33;0.10;;;13.20;99.90;;;;;;5022689;28;20699;-51
2023/07/26 03:34:18;;;;;;;0.20;0.20;;;13.20;99.90;;;;;;5012773;28;20203;-52
2023/07/26 03:36:45;;;;;;;0.37;0.10;;;13.20;99.90;;;;;;4999730;28;20215;-51
2023/07/26 03:39:14;;;;;;;0.10;0.10;;;13.20;99.90;;;;;;5014461;28;20238;-52
2023/07/26 03:41:41;;;;;;;1.03;0.30;;;13.20;99.90;;;;;;5014352;28;20278;-52
2023/07/26 03:44:08;;;;;;;0.10;0.10;;;13.20;99.90;;;;;;5016556;28;20206;-51
2023/07/26 03:46:35;;;;;;;0.17;0.10;;;13.20;99.90;;;;;;5024472;28;20201;-52
2023/07/26 03:49:01;;;;;;;0.10;0.10;;;13.20;99.90;;;;;;5024714;28;20205;-52
2023/07/26 03:51:28;;;;;;;0.10;0.10;;;13.20;99.90;;;;;;5011395;28;20273;-51
2023/07/26 03:53:55;;;;;;;0.10;0.10;;;13.20;99.90;;;;;;4994403;28;20226;-52
2023/07/26 03:56:24;;;;;;;1.50;0.57;;;13.20;99.90;;;;;;5009895;28;20281;-51
2023/07/26 03:58:51;;;;;;;0.20;0.17;;;13.20;99.90;;;;;;5021198;28;20261;-52
2023/07/26 04:01:18;;;;;;;0.20;0.20;;;13.20;99.90;;;;;;5014001;28;20201;-51
2023/07/26 04:03:45;;;;;;;0.20;0.20;;;13.10;99.90;;;;;;5013895;28;20203;-53
2023/07/26 04:06:13;;;;;;;1.40;0.20;;;13.10;99.90;;;;;;5013788;28;20246;-52
2023/07/26 04:08:40;;;;;;;1.40;0.30;;;13.20;99.90;;;;;;5009271;28;20322;-51
2023/07/26 04:11:08;;;;;;;0.30;0.30;;;13.20;99.90;;;;;;4994381;28;20570;-52
2023/07/26 04:13:36;;;;;;;0.23;0.23;;;13.20;99.90;;;;;;5014572;28;20722;-50
2023/07/26 04:16:12;;;;;;;0.30;0.30;;;13.20;99.90;;;;;;5025023;28;20260;-52
2023/07/26 04:18:39;;;;;;;1.07;0.50;;;13.10;99.90;;;;;;5025982;28;20214;-52
2023/07/26 04:21:06;;;;;;;1.37;0.77;;;13.20;99.90;;;;;;5013533;28;20692;-50
2023/07/26 04:23:33;;;;;;;1.83;1.07;;;13.20;99.90;;;;;;5013143;28;20214;-53
2023/07/26 04:26:00;;;;;;;0.63;0.63;;;13.20;99.90;;;;;;5006434;28;20204;-51
2023/07/26 04:28:27;;;;;;;0.67;0.60;;;13.30;99.90;;;;;;5021052;28;20970;-51
2023/07/26 04:30:56;;;;;;;0.77;0.77;;;13.30;99.90;;;;;;5013505;28;20550;-51
2023/07/26 04:33:23;;;;;;;0.50;0.50;;;13.30;99.90;;;;;;5013040;28;20267;-51
2023/07/26 04:35:51;;;;;;;1.23;0.77;;;13.30;99.90;;;;;;5020585;28;20256;-52
2023/07/26 04:38:18;;;;;;;0.77;0.77;;;13.30;99.90;;;;;;5013088;28;20597;-52
2023/07/26 04:40:47;;;;;;;1.00;1.00;;;13.40;99.90;;;;;;5012656;28;20219;-51
2023/07/26 04:43:16;;;;;;;2.10;0.90;;;13.40;99.90;;;;;;5020099;28;20206;-52
2023/07/26 04:45:43;;;;;;;1.20;1.10;;;13.40;99.90;;;;;;5032944;28;20248;-51
2023/07/26 04:48:11;;;;;;;1.70;1.50;;;13.50;99.90;;;;;;5032708;28;20223;-52
2023/07/26 04:50:38;;;;;;;1.20;1.20;;;13.50;99.90;;;;;;5017327;28;20307;-51
2023/07/26 04:53:05;;;;;;;1.20;1.20;;;13.60;99.90;;;;;;5012680;28;20203;-51
2023/07/26 04:55:32;;;;;;;1.50;1.50;;;13.60;99.90;;;;;;5008484;28;20199;-51
2023/07/26 04:57:59;;;;;;;1.87;1.30;;;13.60;99.90;;;;;;5023173;28;20644;-52
2023/07/26 05:00:26;;;;;;;1.37;1.37;;;13.60;99.90;;;;;;5011182;28;20227;-52
2023/07/26 05:02:53;;;;;;;1.70;1.57;;;13.70;99.90;;;;;;4992874;28;20686;-52
2023/07/26 05:05:21;;;;;;;1.80;1.80;;;13.70;99.90;;;;;;4992727;28;20203;-52
2023/07/26 05:07:49;;;;;;;2.60;2.33;;;13.70;99.90;;;;;;4992849;28;20235;-51
2023/07/26 05:10:19;;;;;;;1.93;1.80;;;13.70;99.90;;;;;;5014303;28;20280;-52
2023/07/26 05:12:48;;;;;;;1.80;1.70;;;13.80;99.90;;;;;;5012439;28;20201;-52
2023/07/26 05:15:15;;;;;;;2.37;2.27;;;13.80;99.90;;;;;;5012657;28;20203;-51
2023/07/26 05:17:41;;;;;;;2.47;2.27;;;13.80;99.90;;;;;;5000039;28;20264;-51
2023/07/26 05:20:09;;;;;;;2.27;2.17;;;13.70;99.90;;;;;;4993165;28;20362;-51
2023/07/26 05:22:37;;;;;;;3.20;2.50;;;13.70;99.90;;;;;;4992884;28;20219;-52
2023/07/26 05:25:05;;;;;;;2.50;2.30;;;13.70;99.90;;;;;;5018734;28;20223;-52
2023/07/26 05:27:32;;;;;;;4.17;3.03;;;13.70;99.90;;;;;;5011768;28;20600;-51
2023/07/26 05:29:59;;;;;;;2.50;2.40;;;13.80;99.90;;;;;;5012267;28;20775;-51
2023/07/26 05:32:27;;;;;;;2.93;2.73;;;13.80;99.90;;;;;;5011959;28;20881;-51
2023/07/26 05:34:56;;;;;;;2.60;2.50;;;13.90;99.90;;;;;;4998357;28;20258;-52
2023/07/26 05:37:23;;;;;;;3.13;2.50;;;13.90;99.90;;;;;;4995004;28;20705;-52
2023/07/26 05:39:52;;;;;;;8.73;3.73;;;13.90;99.90;;;;;;5021177;28;20218;-52
2023/07/26 05:42:19;;;;;;;2.90;2.70;;;13.90;99.90;;;;;;5031673;28;20202;-51
2023/07/26 05:44:46;;;;;;;2.50;2.40;;;13.90;99.90;;;;;;5028845;28;20553;-51
2023/07/26 05:47:15;;;;;;;5.60;3.50;;;13.90;99.90;;;;;;5022849;28;20264;-51
2023/07/26 05:49:43;;;;;;;3.00;2.80;;;13.80;99.90;;;;;;5015848;28;20199;-52
2023/07/26 05:52:10;;;;;;;3.77;2.80;;;13.80;99.90;;;;;;5006661;28;20208;-51
2023/07/26 05:54:37;;;;;;;2.53;2.27;;;13.80;99.90;;;;;;5022187;28;20206;-52
2023/07/26 05:57:06;;;;;;;2.77;2.57;;;13.80;99.90;;;;;;5018804;28;20222;-52
2023/07/26 05:59:33;;;;;;;2.90;2.80;;;13.70;99.90;;;;;;5021943;28;20219;-52
2023/07/26 06:02:00;;;;;;;2.23;2.07;;;13.80;99.90;;;;;;5017634;28;20199;-52
2023/07/26 06:04:28;;;;;;;3.07;2.87;;;13.80;99.90;;;;;;5011645;28;20203;-52
2023/07/26 06:06:55;;;;;;;3.07;2.87;;;13.70;99.90;;;;;;5009510;28;20230;-52
2023/07/26 06:09:22;;;;;;;1.93;1.83;;;13.80;99.90;;;;;;5012056;28;20195;-52
2023/07/26 06:11:49;;;;;;;2.27;2.13;;;13.80;99.90;;;;;;5012590;28;20211;-52
2023/07/26 06:14:18;;;;;;;1.30;1.20;;;13.90;99.90;;;;;;5026902;28;20264;-52
2023/07/26 06:16:45;;;;;;;1.83;0.90;;;13.80;99.90;;;;;;5014937;28;20231;-53
2023/07/26 06:19:12;;;;;;;1.00;1.00;;;13.90;99.90;;;;;;5014711;28;20577;-52
2023/07/26 06:21:39;;;;;;;0.70;0.70;;;13.90;99.90;;;;;;5009588;28;20766;-51
2023/07/26 06:24:06;;;;;;;0.60;0.60;;;14.00;99.90;;;;;;5021569;28;20194;-52
2023/07/26 06:26:33;;;;;;;0.70;0.70;;;14.00;99.90;;;;;;5014816;28;20265;-51
2023/07/26 06:29:00;;;;;;;2.00;0.70;;;14.10;99.90;;;;;;5017662;28;20260;-51
2023/07/26 06:31:28;;;;;;;0.63;0.63;;;14.10;99.90;;;;;;5022796;28;20203;-51
2023/07/26 06:33:55;;;;;;;0.93;0.93;;;14.20;99.90;;;;;;5024235;28;20200;-51
2023/07/26 06:36:22;;;;;;;4.23;1.20;;;14.20;99.90;;;;;;5013242;28;20253;-53
2023/07/26 06:38:49;;;;;;;2.57;0.77;;;14.30;99.90;;;;;;5013398;28;20203;-52
2023/07/26 06:41:16;;;;;;;1.00;0.90;;;14.20;99.90;;;;;;5014097;28;20219;-51
2023/07/26 06:43:43;;;;;;;1.57;0.80;;;14.30;99.90;;;;;;5013460;28;20199;-52
2023/07/26 06:46:10;;;;;;;0.87;0.60;;;14.30;99.90;;;;;;5026802;28;20672;-52
2023/07/26 06:48:38;;;;;;;3.33;1.17;;;14.30;99.90;;;;;;5034863;28;20230;-51
2023/07/26 06:51:05;;;;;;;1.70;0.63;;;14.50;99.90;;;;;;5034945;28;20207;-51
2023/07/26 06:53:32;;;;;;;0.70;0.40;;;14.40;99.90;;;;;;5021438;28;20236;-51
2023/07/26 06:55:59;;;;;;;3.50;0.70;;;14.40;99.90;;;;;;5017113;28;20207;-51
2023/07/26 06:58:26;;;;;;;0.83;0.77;;;14.50;99.90;;;;;;5012387;28;20224;-52
2023/07/26 07:00:54;;;;;;;1.73;0.80;;;14.60;99.90;;;;;;4995508;28;20701;-51
2023/07/26 07:03:21;;;;;;;1.10;0.60;;;14.70;99.90;;;;;;4995407;28;20199;-52
2023/07/26 07:05:49;;;;;;;0.50;0.50;;;14.80;99.90;;;;;;4995938;28;20744;-52
2023/07/26 07:08:16;;;;;;;0.47;0.47;;;14.80;99.90;;;;;;4995197;28;20303;-52
2023/07/26 07:10:44;;;;;;;0.40;0.40;;;14.90;99.90;;;;;;4995448;28;20231;-51
2023/07/26 07:13:10;;;;;;;2.50;0.60;;;15.00;99.90;;;;;;4995155;28;20211;-52
2023/07/26 07:15:38;;;;;;;0.83;0.40;;;14.90;99.90;;;;;;4996952;28;20259;-51
2023/07/26 07:18:05;;;;;;;2.83;0.90;;;14.90;99.90;;;;;;5025944;28;20225;-51
2023/07/26 07:20:32;;;;;;;2.27;0.60;;;14.80;99.90;;;;;;5022521;28;20223;-52
2023/07/26 07:23:00;;;;;;;0.50;0.50;;;14.90;99.90;;;;;;5014232;28;20219;-51
2023/07/26 07:25:27;;;;;;;1.00;0.90;;;15.00;99.90;;;;;;5014632;28;20665;-51
2023/07/26 07:27:54;;;;;;;0.77;0.73;;;15.20;99.90;;;;;;5014175;28;20281;-52
2023/07/26 07:30:21;;;;;;;0.60;0.60;;;15.50;99.90;;;;;;5014513;28;20269;-52
2023/07/26 07:32:49;;;;;;;1.20;0.97;;;15.80;99.90;;;;;;5013794;28;20211;-51
2023/07/26 07:35:16;;;;;;;0.50;0.50;;;16.00;99.90;;;;;;5014639;28;20199;-51
2023/07/26 07:37:43;;;;;;;0.57;0.57;;;16.20;99.90;;;;;;5014240;28;20245;-51
2023/07/26 07:40:13;;;;;;;0.83;0.83;;;16.60;99.90;;;;;;5013995;28;20700;-51
2023/07/26 07:42:40;;;;;;;1.40;0.83;;;16.80;99.90;;;;;;5014174;28;20734;-52
2023/07/26 07:45:08;;;;;;;0.70;0.70;;;17.20;99.90;;;;;;5013449;28;20257;-51
2023/07/26 07:47:36;;;;;;;0.73;0.60;;;17.50;99.90;;;;;;5013666;28;20700;-52
2023/07/26 07:50:03;;;;;;;0.63;0.63;;;17.80;99.90;;;;;;5014813;28;20207;-52
2023/07/26 07:52:29;;;;;;;0.83;0.80;;;17.80;99.90;;;;;;5018910;28;20322;-52
2023/07/26 07:54:56;;;;;;;1.40;1.08;;;18.10;99.90;;;;;;5012945;28;20459;-52
2023/07/26 07:57:25;;;;;;;1.17;0.80;;;18.80;99.90;;;;;;5021343;28;20606;-52
2023/07/26 07:59:52;;;;;;;0.90;0.90;;;19.10;99.90;;;;;;5013744;28;20213;-53
2023/07/26 08:02:19;;;;;;;0.80;0.80;;;19.20;99.90;;;;;;5013856;28;20210;-52
2023/07/26 08:04:46;;;;;;;0.83;0.83;;;19.10;99.90;;;;;;5013669;28;20203;-51
2023/07/26 08:07:13;;;;;;;2.67;0.77;;;19.30;99.90;;;;;;5004600;28;20290;-51
2023/07/26 08:09:42;;;;;;;1.13;0.70;;;19.10;99.90;;;;;;4994469;28;20239;-52
2023/07/26 08:12:09;;;;;;;0.80;0.73;;;18.90;99.90;;;;;;5006075;28;20206;-52
2023/07/26 08:14:39;;;;;;;1.03;0.97;;;18.50;99.90;;;;;;5013139;28;20693;-50
2023/07/26 08:17:06;;;;;;;0.90;0.90;;;18.30;99.90;;;;;;5013481;28;20299;-51
2023/07/26 08:19:33;;;;;;;3.13;0.90;;;18.00;99.90;;;;;;5013051;28;20625;-51
2023/07/26 08:22:00;;;;;;;0.73;0.70;;;17.80;99.90;;;;;;5013075;28;20215;-51
2023/07/26 08:24:27;;;;;;;1.00;0.80;;;17.80;99.90;;;;;;5009378;28;20209;-62
2023/07/26 08:26:54;;;;;;;1.50;1.00;;;17.80;99.90;;;;;;5020115;28;20226;-61
2023/07/26 08:29:20;;;;;;;0.83;0.83;;;17.80;99.90;;;;;;5013067;28;20234;-61
2023/07/26 08:31:49;;;;;;;4.90;1.67;;;17.60;99.90;;;;;;5013298;28;20196;-60
2023/07/26 08:34:16;;;;;;;1.07;0.90;;;17.50;99.90;;;;;;5012824;28;20253;-60
2023/07/26 08:36:43;;;;;;;2.83;0.97;;;17.40;99.90;;;;;;5013305;28;20211;-55
2023/07/26 08:39:10;;;;;;;1.07;0.80;;;17.50;99.90;;;;;;5015147;28;20206;-54
2023/07/26 08:41:37;;;;;;;1.00;1.00;;;17.30;99.90;;;;;;5019945;28;20219;-55
2023/07/26 08:44:06;;;;;;;0.90;0.90;;;17.20;99.90;;;;;;5016053;28;20202;-54
2023/07/26 08:46:34;;;;;;;1.47;0.87;;;17.10;99.90;;;;;;5031831;28;20241;-54
2023/07/26 08:49:02;;;;;;;1.20;1.10;;;17.00;99.90;;;;;;5016878;28;20203;-55
2023/07/26 08:51:30;;;;;;;1.20;1.10;;;16.80;99.90;;;;;;5020925;28;20673;-55
2023/07/26 08:53:58;;;;;;;1.50;0.97;;;16.70;99.90;;;;;;5012672;28;20196;-55
2023/07/26 08:56:26;;;;;;;1.13;1.13;;;16.70;99.90;;;;;;5012766;28;20209;-55
2023/07/26 08:58:53;;;;;;;1.50;1.40;;;16.60;99.90;;;;;;4998282;28;20737;-54
2023/07/26 09:01:21;;;;;;;1.80;1.70;;;16.50;99.90;;;;;;5007035;28;20259;-54
2023/07/26 09:03:48;;;;;;;1.93;1.30;;;16.60;99.90;;;;;;5019639;28;20730;-55
2023/07/26 09:06:16;;;;;;;1.50;1.10;;;16.50;99.90;;;;;;5012458;28;20196;-53
2023/07/26 09:08:44;;;;;;;1.00;1.00;;;16.40;99.90;;;;;;5012660;28;20301;-55
2023/07/26 09:11:23;;;;;;;0.83;0.83;;;16.40;99.90;;;;;;5012548;28;20195;-58
2023/07/26 09:13:57;;;;;;;3.07;1.23;;;16.20;99.90;;;;;;5012419;28;20203;-57
2023/07/26 09:16:27;;;;;;;0.70;0.70;;;16.20;99.90;;;;;;4994500;28;20208;-53
2023/07/26 09:19:00;;;;;;;0.90;0.90;;;16.20;99.90;;;;;;5010524;28;20211;-56
2023/07/26 09:21:29;;;;;;;2.03;0.77;;;16.20;99.90;;;;;;5012149;28;20302;-55
2023/07/26 09:23:56;;;;;;;1.07;1.00;;;16.10;99.90;;;;;;5011887;28;20735;-55
2023/07/26 09:26:40;;;;;;;0.80;0.80;;;16.10;99.90;;;;;;5012260;28;20218;-55
2023/07/26 09:29:10;;;;;;;1.00;1.00;;;16.00;99.90;;;;;;5010005;28;20293;-54
2023/07/26 09:31:38;;;;;;;0.97;0.60;;;16.00;99.90;;;;;;5009878;28;20296;-50
2023/07/26 09:34:08;;;;;;;0.60;0.60;;;15.90;99.90;;;;;;5023118;28;20199;-56
2023/07/26 09:36:43;;;;;;;1.50;0.87;;;15.80;99.90;;;;;;5031897;28;20198;-58
2023/07/26 09:39:11;;;;;;;1.73;0.70;;;15.70;99.90;;;;;;5031732;28;20699;-59
2023/07/26 09:41:38;;;;;;;1.00;1.00;;;15.60;99.90;;;;;;4995869;28;20221;-59
2023/07/26 09:44:06;;;;;;;2.40;0.90;;;15.50;99.90;;;;;;4992479;28;20575;-51
2023/07/26 09:46:48;;;;;;;1.00;0.90;;;15.50;99.90;;;;;;4992256;28;20207;-49
2023/07/26 09:49:15;;;;;;;6.23;1.80;;;15.50;99.90;;;;;;5007720;28;20216;-50
2023/07/26 09:51:43;;;;;;;1.03;1.03;;;15.50;99.90;;;;;;5031829;28;20377;-50
2023/07/26 09:54:10;;;;;;;1.23;0.83;;;15.50;99.90;;;;;;5023140;28;20264;-57
2023/07/26 09:56:40;;;;;;;1.53;1.10;;;15.50;99.90;;;;;;5018809;28;20257;-55
2023/07/26 09:59:10;;;;;;;1.30;1.30;;;15.60;99.90;;;;;;5011726;28;20211;-53
2023/07/26 10:01:41;;;;;;;1.10;1.10;;;15.60;99.90;;;;;;5011010;28;20305;-54
2023/07/26 10:04:12;;;;;;;1.27;1.20;;;15.70;99.90;;;;;;5011396;28;20195;-54
2023/07/26 10:06:42;;;;;;;1.97;0.67;;;15.70;99.90;;;;;;4999031;28;20230;-55
2023/07/26 10:09:14;;;;;;;0.70;0.70;;;15.60;99.90;;;;;;4997604;28;20290;-54
2023/07/26 10:11:43;;;;;;;0.80;0.77;;;15.60;99.90;;;;;;5017565;28;20198;-55
2023/07/26 10:14:11;;;;;;;1.70;0.70;;;15.70;99.90;;;;;;5004275;28;20723;-55
2023/07/26 10:16:39;;;;;;;2.43;0.50;;;15.80;99.90;;;;;;5014201;28;20637;-55
2023/07/26 10:19:07;;;;;;;0.40;0.40;;;15.80;99.90;;;;;;5022658;28;20715;-54
2023/07/26 10:21:36;;;;;;;1.33;1.33;;;15.90;99.90;;;;;;5027340;28;20219;-57
2023/07/26 10:24:04;;;;;;;1.17;0.60;;;16.10;99.90;;;;;;4995747;28;20250;-55
2023/07/26 10:26:35;;;;;;;1.93;0.70;;;16.30;99.90;;;;;;4991866;28;20282;-55
2023/07/26 10:29:02;;;;;;;0.60;0.60;;;16.80;99.90;;;;;;4997293;28;20265;-55
2023/07/26 10:31:29;;;;;;;0.63;0.50;;;17.50;99.90;;;;;;5023093;28;20278;-53
2023/07/26 10:33:58;;;;;;;0.53;0.53;;;18.80;99.90;;;;;;5012413;28;20199;-54
2023/07/26 10:36:29;;;;;;;0.50;0.50;;;19.90;99.90;;;;;;4991903;28;20629;-57
2023/07/26 10:38:56;;;;;;;0.30;0.30;;;20.30;99.90;;;;;;5016449;28;20198;-51
2023/07/26 10:41:25;;;;;;;2.03;0.50;;;20.50;99.90;;;;;;5013227;28;20616;-51
2023/07/26 10:44:04;;;;;;;3.20;0.60;;;20.40;99.90;;;;;;5022772;28;20301;-51
2023/07/26 10:46:46;;;;;;;1.47;0.50;;;20.60;99.90;;;;;;5031122;28;20209;-51
2023/07/26 10:49:18;;;;;;;0.57;0.47;;;20.80;99.90;;;;;;5031031;28;20206;-51
2023/07/26 10:51:51;;;;;;;2.10;0.70;;;20.60;99.90;;;;;;5031231;28;20209;-54
2023/07/26 10:54:34;;;;;;;1.33;0.60;;;20.20;99.90;;;;;;5028001;28;20298;-54
2023/07/26 10:57:17;;;;;;;0.87;0.70;;;19.90;99.90;;;;;;5017489;28;20280;-54
2023/07/26 11:00:09;;;;;;;2.47;0.50;;;19.20;99.90;;;;;;5030906;28;20260;-54
2023/07/26 11:02:45;;;;;;;1.43;0.50;;;18.90;99.90;;;;;;5017526;28;20218;-54
2023/07/26 11:05:15;;;;;;;0.40;0.40;;;18.60;99.90;;;;;;5019631;28;20209;-56
2023/07/26 11:07:54;;;;;;;0.47;0.47;;;18.40;99.90;;;;;;5034376;28;20716;-56
2023/07/26 11:10:23;;;;;;;0.40;0.40;;;18.40;99.90;;;;;;5021941;28;20206;-57
2023/07/26 11:12:51;;;;;;;1.30;0.63;;;18.40;99.90;;;;;;5026113;28;20198;-56
2023/07/26 11:15:30;;;;;;;0.67;0.63;;;18.60;99.90;;;;;;4999085;28;20295;-56
2023/07/26 11:17:57;;;;;;;0.53;0.53;;;18.70;99.90;;;;;;4994733;28;20775;-57
2023/07/26 11:20:24;;;;;;;0.70;0.70;;;18.90;99.90;;;;;;4994974;28;20666;-57
2023/07/26 11:22:51;;;;;;;0.60;0.60;;;19.00;99.90;;;;;;4994587;28;20227;-58
2023/07/26 11:25:19;;;;;;;1.00;0.40;;;18.90;99.90;;;;;;5015864;28;20207;-57
2023/07/26 11:27:50;;;;;;;0.50;0.50;;;18.90;99.90;;;;;;5014277;28;20600;-57
2023/07/26 11:30:19;;;;;;;0.67;0.50;;;18.80;99.90;;;;;;5013414;28;20206;-57
2023/07/26 11:32:51;;;;;;;0.40;0.40;;;18.60;99.90;;;;;;5003084;28;20200;-58
2023/07/26 11:35:20;;;;;;;0.40;0.40;;;18.50;99.90;;;;;;5014135;28;20203;-56
2023/07/26 11:37:56;;;;;;;0.70;0.50;;;18.30;99.90;;;;;;5014413;28;20310;-57
2023/07/26 11:40:23;;;;;;;0.40;0.40;;;18.20;99.90;;;;;;5021630;28;20205;-57
2023/07/26 11:42:51;;;;;;;0.40;0.40;;;18.10;99.90;;;;;;5028824;28;20222;-57
2023/07/26 11:45:18;;;;;;;0.40;0.40;;;17.90;99.90;;;;;;5024616;28;20211;-56
2023/07/26 11:47:46;;;;;;;0.60;0.50;;;17.80;99.90;;;;;;5014184;28;20663;-61
2023/07/26 11:50:20;;;;;;;1.23;0.50;;;17.70;99.90;;;;;;5024670;28;20203;-59
2023/07/26 11:53:03;;;;;;;3.20;0.80;;;17.50;99.90;;;;;;5021466;28;20715;-59
2023/07/26 11:55:30;;;;;;;1.23;0.60;;;17.60;99.90;;;;;;5013589;28;20203;-56
2023/07/26 11:58:03;;;;;;;2.20;0.40;;;17.60;99.90;;;;;;5021866;28;20222;-57
2023/07/26 12:00:30;;;;;;;3.20;0.50;;;18.00;99.90;;;;;;5020283;28;20215;-57
2023/07/26 12:02:59;;;;;;;0.20;0.20;;;18.30;99.90;;;;;;5022431;28;20215;-59
2023/07/26 12:05:26;;;;;;;0.50;0.37;;;18.50;99.90;;;;;;5018376;28;20257;-56
2023/07/26 12:07:54;;;;;;;0.50;0.30;;;18.50;99.90;;;;;;5014305;28;20664;-59
2023/07/26 12:10:29;;;;;;;0.30;0.30;;;18.40;99.90;;;;;;5009640;28;20231;-57
2023/07/26 12:12:56;;;;;;;0.60;0.40;;;18.40;99.90;;;;;;5015054;28;20196;-59
2023/07/26 12:15:24;;;;;;;1.03;0.77;;;18.40;99.90;;;;;;5025892;28;20260;-57
2023/07/26 12:18:00;;;;;;;1.90;0.30;;;18.50;99.90;;;;;;5023182;28;20269;-58
2023/07/26 12:20:29;;;;;;;0.40;0.30;;;18.60;99.90;;;;;;5017600;28;20253;-58
2023/07/26 12:22:57;;;;;;;0.53;0.30;;;18.70;99.90;;;;;;5016576;28;20259;-61
2023/07/26 12:25:34;;;;;;;0.40;0.40;;;18.60;99.90;;;;;;5019517;28;20199;-57
2023/07/26 12:28:02;;;;;;;1.33;0.30;;;18.70;99.90;;;;;;5021407;28;20301;-57
2023/07/26 12:30:29;;;;;;;0.40;0.30;;;18.70;99.90;;;;;;5020221;28;20282;-59
2023/07/26 12:33:10;;;;;;;1.50;0.37;;;18.80;99.90;;;;;;5024547;28;20658;-57
2023/07/26 12:35:38;;;;;;;0.80;0.40;;;18.70;99.90;;;;;;5027305;28;20202;-59
2023/07/26 12:38:10;;;;;;;1.57;0.43;;;18.60;99.90;;;;;;5021315;28;20222;-57
2023/07/26 12:40:37;;;;;;;0.40;0.40;;;18.50;99.90;;;;;;5020646;28;20620;-56
2023/07/26 12:43:22;;;;;;;0.47;0.40;;;18.30;99.90;;;;;;5017419;28;20231;-57
2023/07/26 12:45:49;;;;;;;0.40;0.40;;;18.20;99.90;;;;;;5021880;28;20210;-58
2023/07/26 12:48:17;;;;;;;0.57;0.40;;;18.00;99.90;;;;;;5025431;28;20305;-58
2023/07/26 12:50:44;;;;;;;0.60;0.60;;;17.90;99.90;;;;;;5024260;28;20203;-58
2023/07/26 12:53:13;;;;;;;0.83;0.37;;;17.90;99.90;;;;;;5015163;28;20207;-56
2023/07/26 12:55:40;;;;;;;0.47;0.47;;;18.40;99.90;;;;;;5019790;28;20204;-56